Stations météo

réclame
Mon MeteoGroup
Fichtelberg, Allemagne (10578): Température de l'air & dewpoint: 08.08.2018 21:00:00 - 14.08.2018 21:00:00 (CEST)Fichtelberg, Allemagne (10578): Température de l'air 5cm & Température de l'air -5cm: 08.08.2018 21:00:00 - 14.08.2018 21:00:00 (CEST)Fichtelberg, Allemagne (10578): Température de l'air -20cm & Température de l'air -100cm: 08.08.2018 21:00:00 - 14.08.2018 21:00:00 (CEST)Fichtelberg, Allemagne (10578): Vitesse du vent & gusts: 08.08.2018 21:00:00 - 14.08.2018 21:00:00 (CEST)Fichtelberg, Allemagne (10578): Direction du vent: 08.08.2018 21:00:00 - 14.08.2018 21:00:00 (CEST)Fichtelberg, Allemagne (10578): visibility: 08.08.2018 21:00:00 - 14.08.2018 21:00:00 (CEST)Fichtelberg, Allemagne (10578): Ensoleillement: 08.08.2018 21:00:00 - 14.08.2018 21:00:00 (CEST)Fichtelberg, Allemagne (10578): Quantités de précipitations: 08.08.2018 21:00:00 - 14.08.2018 21:00:00 (CEST)
Date & Time tt [°C] td [°C] tt 5cm [°C] tt -5cm [°C] tt -20cm [°C] tt -100cm [°C] ff [km/h] ff [knt] fx [km/h] fx [knt] dd vv [km] sd [min] rr [mm]
14.08.2018 21:00:00 12,0 10,4 12,0 17,4 18,4 14,4 34 18 41 22 W 50 0 -
14.08.2018 20:00:00 12,8 9,9 12,3 18,8 18,4 14,4 24 13 46 25 W 70 5 -
14.08.2018 19:00:00 13,9 9,9 14,0 19,9 18,3 14,4 33 18 50 27 W 70 16 -
14.08.2018 18:00:00 14,8 10,1 15,4 20,6 18,2 14,4 26 14 48 26 W 70 21 -
14.08.2018 17:00:00 15,0 9,5 15,9 20,3 18,1 14,4 34 18 46 25 W 70 7 -
14.08.2018 16:00:00 14,5 9,5 15,2 20,1 17,9 14,4 28 15 39 21 W 70 1 -
14.08.2018 15:00:00 14,8 8,7 15,6 20,8 17,7 14,4 29 16 45 24 W 70 7 -
14.08.2018 14:00:00 15,9 9,4 18,9 20,1 17,6 14,4 29 16 45 25 WSW 70 11 -
14.08.2018 13:00:00 13,9 9,3 15,2 19,1 17,4 14,4 26 14 36 20 WSW 70 0 -
14.08.2018 12:00:00 14,7 9,3 17,3 19,0 17,4 14,4 26 14 42 23 W 70 13 -
14.08.2018 11:00:00 14,1 8,9 16,1 18,0 17,4 14,4 32 17 45 24 W 60 27 -
14.08.2018 10:00:00 12,9 9,6 14,5 16,4 17,5 14,4 28 15 44 24 W 40 17 -
14.08.2018 09:00:00 11,9 9,6 12,9 15,4 17,7 14,4 34 19 52 28 W 35 4 0,5
14.08.2018 08:00:00 11,4 10,1 12,2 14,9 17,9 14,4 35 19 49 26 W 35 7 -
14.08.2018 07:00:00 10,8 10,3 10,9 14,8 18,1 14,4 32 17 54 29 W 23 1 -
14.08.2018 06:00:00 11,1 10,7 11,1 15,0 18,4 14,4 31 17 53 29 WSW 0,2 0 -
14.08.2018 05:00:00 11,4 10,9 11,2 15,3 18,6 14,4 34 18 50 27 WSW 20 0 -
14.08.2018 04:00:00 11,7 11,2 11,3 15,6 18,9 14,4 36 19 49 26 WSW 23 0 -
14.08.2018 03:00:00 12,1 11,7 12,1 15,8 19,2 14,4 35 19 51 27 WSW 15 0 -
14.08.2018 02:00:00 12,2 11,5 11,9 16,1 19,5 14,4 42 23 54 29 WSW 30 0 -
14.08.2018 01:00:00 12,7 11,5 12,2 16,6 19,9 14,4 44 24 56 31 SW 60 0 -
14.08.2018 00:00:00 13,2 11,2 12,4 17,3 20,2 14,4 39 21 47 26 SW 70 0 -
13.08.2018 23:00:00 13,2 11,2 12,4 18,1 20,5 14,4 32 17 39 21 SW 80 0 -
13.08.2018 22:00:00 13,1 11,0 12,2 19,2 20,7 14,4 29 16 44 24 SW 80 0 -
13.08.2018 21:00:00 13,4 11,2 12,5 20,8 20,8 14,4 29 16 45 24 WSW 80 0 -
13.08.2018 20:00:00 16,5 9,9 16,1 22,6 20,8 14,4 29 16 37 20 WSW 60 0 -
13.08.2018 19:00:00 17,7 10,4 17,5 24,1 20,7 14,4 17 9 29 16 W 60 0 -
13.08.2018 18:00:00 18,8 10,5 19,1 25,9 20,4 14,4 19 11 41 22 W 50 0 -
13.08.2018 17:00:00 20,1 10,0 20,4 28,1 19,9 14,4 37 20 58 31 W 50 26 -
13.08.2018 16:00:00 23,3 9,7 25,1 28,0 19,3 14,4 26 14 40 21 W 50 17 -
13.08.2018 15:00:00 23,2 8,6 25,6 28,9 18,6 14,4 29 16 44 24 WSW 50 37 -
13.08.2018 14:00:00 24,3 9,2 28,9 27,7 18,0 14,4 24 13 50 27 WSW 50 50 -
13.08.2018 13:00:00 22,6 7,6 24,6 26,0 17,4 14,5 32 18 50 27 SW 50 54 -
13.08.2018 12:00:00 22,7 8,0 28,3 23,4 17,1 14,5 24 13 48 26 SSW 50 60 -
13.08.2018 11:00:00 21,1 8,2 26,1 20,5 17,0 14,5 20 11 35 19 SSW 70 60 -
13.08.2018 10:00:00 20,0 8,4 23,5 17,7 17,0 14,5 18 10 27 14 SW 70 60 -
13.08.2018 09:00:00 18,2 9,9 20,6 15,4 17,2 14,5 17 9 30 16 WSW 70 60 0,0
13.08.2018 08:00:00 16,0 9,2 15,5 14,3 17,4 14,5 25 13 - - SW 70 60 -
13.08.2018 07:00:00 15,6 8,2 13,9 14,2 17,6 14,5 29 16 37 20 SSW 70 36 -
13.08.2018 06:00:00 15,6 8,0 13,6 14,3 17,9 14,5 31 17 39 21 SSW 70 0 -
13.08.2018 05:00:00 16,1 7,6 14,2 14,6 18,2 14,5 35 19 40 22 SW 82 0 -
13.08.2018 04:00:00 16,1 5,6 14,0 14,8 18,5 14,5 31 17 37 20 SSW 82 0 -
13.08.2018 03:00:00 16,4 3,7 14,2 15,2 18,8 14,5 32 17 36 19 SSW 82 0 -
13.08.2018 02:00:00 16,2 3,4 13,7 15,6 19,2 14,5 27 15 30 16 S 82 0 -
13.08.2018 01:00:00 15,9 3,6 12,8 16,3 19,5 14,5 24 13 26 14 S 82 0 -
13.08.2018 00:00:00 15,5 3,6 12,4 17,3 19,8 14,5 19 10 21 12 S 82 0 -
12.08.2018 23:00:00 15,4 3,9 12,8 18,5 20,0 14,5 18 10 20 11 S 82 0 -
12.08.2018 22:00:00 15,4 3,8 12,5 20,0 20,1 14,5 14 7 15 8 S 82 0 -
12.08.2018 21:00:00 15,8 4,5 12,8 22,1 20,1 14,5 10 6 13 7 S 82 0 -
12.08.2018 20:00:00 17,5 5,3 15,6 24,6 19,8 14,6 13 7 16 9 SSW 82 46 -
12.08.2018 19:00:00 18,7 5,2 18,5 27,2 19,3 14,6 14 7 24 13 S 82 60 -
12.08.2018 18:00:00 20,1 6,0 22,6 28,6 18,6 14,6 12 6 25 13 S 82 60 -
12.08.2018 17:00:00 20,1 5,0 23,5 29,2 17,8 14,6 16 9 30 16 SSW 82 60 -
12.08.2018 16:00:00 20,0 5,5 24,8 28,6 17,1 14,6 22 12 32 17 SSW 82 60 -
12.08.2018 15:00:00 19,6 5,8 25,1 27,0 16,3 14,6 13 7 37 20 S 82 60 -
12.08.2018 14:00:00 18,3 5,3 23,9 24,6 15,8 14,6 22 12 30 16 SSW 82 60 -
12.08.2018 13:00:00 17,4 5,9 22,9 21,9 15,3 14,6 16 9 38 21 SSW 82 60 -
12.08.2018 12:00:00 16,2 5,4 21,7 19,0 15,1 14,6 16 8 32 17 SSW 82 60 -
12.08.2018 11:00:00 14,2 4,3 18,1 16,0 15,0 14,6 19 10 28 15 S 82 60 -
12.08.2018 10:00:00 13,8 4,1 16,8 13,8 15,1 14,6 14 7 24 13 SSE 82 60 -
12.08.2018 09:00:00 12,9 3,6 14,8 11,5 15,3 14,6 14 8 23 12 SE 82 60 0,0
12.08.2018 08:00:00 11,2 2,9 10,6 10,1 15,6 14,6 18 10 23 12 SE 80 56 -
12.08.2018 07:00:00 9,6 2,2 7,9 9,9 15,9 14,6 14 8 21 11 SE 80 27 -
12.08.2018 06:00:00 9,5 1,9 6,5 10,1 16,3 14,6 14 8 20 11 S 80 0 -
12.08.2018 05:00:00 9,2 1,7 5,4 10,6 16,6 14,6 12 7 14 8 SSE 82 0 -
12.08.2018 04:00:00 9,2 1,5 6,5 11,0 17,0 14,6 10 6 12 6 SE 82 0 -
12.08.2018 03:00:00 9,4 1,4 3,7 11,7 17,3 14,6 6 3 11 6 ENE 82 0 -
12.08.2018 02:00:00 9,6 1,9 7,3 12,3 17,7 14,6 12 6 18 10 N 82 0 -
12.08.2018 01:00:00 9,3 1,9 7,7 13,1 18,0 14,7 18 10 22 12 NNW 82 0 -
12.08.2018 00:00:00 9,6 2,0 8,1 14,0 18,4 14,7 20 11 24 13 NNW 82 0 -
11.08.2018 23:00:00 10,0 2,0 8,3 15,1 18,6 14,7 21 12 29 15 WNW 82 0 -
11.08.2018 22:00:00 10,7 1,9 9,0 16,5 18,8 14,7 24 13 32 18 W 82 0 -
11.08.2018 21:00:00 11,9 1,6 10,4 18,3 18,8 14,7 27 15 41 22 W 82 31 -
11.08.2018 20:00:00 13,9 2,3 12,5 20,6 18,7 14,7 29 15 50 27 W 82 59 -
11.08.2018 19:00:00 15,6 3,6 15,6 22,5 18,4 14,7 29 16 50 27 WSW 82 47 -
11.08.2018 18:00:00 15,7 4,8 16,1 23,1 18,0 14,7 33 18 53 28 WSW 82 30 -
11.08.2018 17:00:00 15,1 5,2 15,6 24,3 17,6 14,7 35 19 56 30 WSW 82 37 -
11.08.2018 16:00:00 17,4 4,3 20,4 23,5 17,1 14,7 35 19 58 31 WSW 82 47 -
11.08.2018 15:00:00 15,2 4,8 17,3 22,2 16,7 14,7 32 18 53 28 W 82 22 -
11.08.2018 14:00:00 15,9 4,5 18,1 20,9 16,4 14,7 40 21 62 34 W 82 27 -
11.08.2018 13:00:00 15,4 6,4 18,6 20,3 16,1 14,7 37 20 52 28 WSW 80 39 -
11.08.2018 12:00:00 15,4 8,5 19,4 18,4 15,9 14,7 33 18 55 30 WSW 70 38 -
11.08.2018 11:00:00 13,9 9,3 17,3 16,1 15,9 14,7 31 17 47 26 WSW 70 23 -
11.08.2018 10:00:00 13,3 7,8 16,3 14,0 16,0 14,7 32 17 47 26 WSW 82 40 -
11.08.2018 09:00:00 12,2 7,1 12,9 12,7 16,1 14,7 33 18 43 23 SW 82 33 0,3
11.08.2018 08:00:00 11,2 6,3 10,5 12,1 16,3 14,7 37 20 55 30 SW 82 4 -
11.08.2018 07:00:00 10,8 6,8 10,2 12,0 16,6 14,7 37 20 45 24 SSW 50 0 -
11.08.2018 06:00:00 10,3 7,7 9,7 11,9 16,8 14,7 32 17 44 24 SW 60 0 -
11.08.2018 05:00:00 10,1 8,0 9,0 11,9 17,1 14,7 32 18 41 22 SW 70 0 -
11.08.2018 04:00:00 10,0 8,4 8,6 12,0 17,5 14,7 32 18 37 20 SW 70 0 -
11.08.2018 03:00:00 9,7 8,2 8,3 12,4 17,8 14,7 30 16 35 19 SW 70 0 -
11.08.2018 02:00:00 9,6 8,7 8,4 12,8 18,1 14,7 28 15 34 19 SW 80 0 -
11.08.2018 01:00:00 9,7 8,7 8,5 13,3 18,5 14,7 29 15 35 19 SW 82 0 -
11.08.2018 00:00:00 9,9 8,6 8,7 14,0 18,8 14,6 29 16 34 18 SW 82 0 -
10.08.2018 23:00:00 10,8 5,5 9,0 14,9 19,0 14,6 23 13 33 18 WSW 82 0 -
10.08.2018 22:00:00 11,2 4,2 9,4 16,1 19,2 14,6 26 14 31 17 WSW 82 0 -
10.08.2018 21:00:00 12,2 5,6 10,7 17,8 19,3 14,6 23 12 26 14 SW 82 34 -
10.08.2018 20:00:00 13,5 6,0 12,0 19,8 19,2 14,6 19 10 33 18 SW 82 45 -
10.08.2018 19:00:00 15,3 6,6 16,0 21,4 19,0 14,6 16 9 33 18 WSW 82 39 -
10.08.2018 18:00:00 15,9 6,3 17,3 21,8 18,8 14,6 14 7 28 15 W 82 47 -
10.08.2018 17:00:00 14,5 7,3 16,3 20,7 18,7 14,6 21 11 30 16 WSW 82 5 -
10.08.2018 16:00:00 14,6 8,8 17,0 20,2 18,7 14,6 16 8 32 17 WSW 82 19 -
10.08.2018 15:00:00 13,1 9,7 15,2 18,0 18,7 14,6 18 10 27 15 SW 82 1 -
10.08.2018 14:00:00 11,9 8,9 12,0 18,3 18,7 14,6 19 10 24 13 SW 80 0 -
10.08.2018 13:00:00 13,5 8,7 14,6 18,6 18,8 14,6 21 11 31 17 W 82 6 -
10.08.2018 12:00:00 12,6 9,3 13,4 16,8 19,0 14,6 25 13 42 23 W 82 0 -
10.08.2018 11:00:00 11,3 9,6 11,6 16,3 19,2 14,6 31 17 45 24 W 82 0 -
10.08.2018 10:00:00 10,7 9,7 11,3 15,8 19,5 14,6 39 21 54 29 WSW 80 0 -
10.08.2018 09:00:00 10,6 10,0 10,8 15,7 19,8 14,6 44 24 55 30 WSW 40 0 0,6
10.08.2018 08:00:00 10,7 10,1 10,6 16,0 20,1 14,5 48 26 57 31 W 20 0 -
10.08.2018 07:00:00 11,8 9,8 11,3 16,4 20,4 14,5 40 22 56 30 W 50 0 -
10.08.2018 06:00:00 12,7 10,2 12,5 16,7 20,7 14,5 40 22 63 34 W 70 0 -
10.08.2018 05:00:00 12,8 10,0 12,3 17,1 21,1 14,5 54 29 74 40 W 70 0 -
10.08.2018 04:00:00 13,5 10,0 13,2 17,5 21,4 14,5 54 29 69 37 W 70 0 -
10.08.2018 03:00:00 13,5 10,8 13,0 17,9 21,8 14,5 50 27 66 36 W 70 0 -
10.08.2018 02:00:00 14,2 10,0 13,2 18,7 22,2 14,5 54 29 74 40 W 70 0 -
10.08.2018 01:00:00 14,7 10,7 13,7 19,7 22,6 14,5 45 25 58 31 W 50 0 -
10.08.2018 00:00:00 15,8 10,7 14,6 20,8 22,9 14,5 46 25 67 36 W 50 0 -
09.08.2018 23:00:00 17,7 10,4 16,5 22,1 23,1 14,5 40 21 48 26 W 50 0 -
09.08.2018 22:00:00 19,0 11,3 17,1 23,6 23,3 14,5 27 15 46 25 W 50 0 -
09.08.2018 21:00:00 22,4 11,7 20,6 25,4 23,3 14,5 24 13 32 17 SSW 50 5 -
09.08.2018 20:00:00 23,1 11,9 22,0 27,6 23,1 14,5 22 12 28 15 SSW 50 13 -
09.08.2018 19:00:00 24,3 11,3 23,9 30,1 22,7 14,5 26 14 40 21 SSE 50 47 -
09.08.2018 18:00:00 25,6 11,9 27,3 31,2 22,2 14,5 23 13 40 22 SSE 45 60 -
09.08.2018 17:00:00 25,7 13,6 28,6 30,5 21,8 14,5 23 12 36 19 E 35 46 -
09.08.2018 16:00:00 23,7 13,4 24,5 30,3 21,2 14,5 30 16 39 21 E 40 30 -
09.08.2018 15:00:00 23,7 14,1 25,6 29,9 20,6 14,4 28 15 42 23 E 50 33 -
09.08.2018 14:00:00 24,6 14,1 29,0 29,3 20,1 14,4 23 13 39 21 ESE 50 60 -
09.08.2018 13:00:00 24,1 14,0 28,2 27,5 19,6 14,4 26 14 40 22 E 50 60 -
09.08.2018 12:00:00 23,6 13,9 28,1 25,0 19,3 14,4 29 16 38 20 E 50 60 -
09.08.2018 11:00:00 23,0 13,5 26,3 22,5 19,2 14,4 25 14 36 20 ESE 50 60 -
09.08.2018 10:00:00 22,2 13,0 24,9 20,0 19,2 14,4 24 13 33 18 E 45 60 -
09.08.2018 09:00:00 21,3 12,5 22,7 18,0 19,4 14,4 21 12 26 14 E 40 60 0,3
09.08.2018 08:00:00 20,0 12,4 19,8 16,8 19,7 14,4 21 11 24 13 E 50 60 -
09.08.2018 07:00:00 18,5 12,2 16,4 16,6 20,0 14,4 14 8 17 9 ENE 50 24 -
09.08.2018 06:00:00 18,3 11,6 15,7 16,8 20,3 14,4 11 6 13 7 ENE 50 0 -
09.08.2018 05:00:00 18,2 11,4 15,9 17,2 20,6 14,4 12 7 15 8 NNE 50 0 -
09.08.2018 04:00:00 18,6 11,8 16,2 17,7 20,9 14,4 13 7 14 8 N 50 0 -
09.08.2018 03:00:00 18,6 11,6 12,8 18,3 21,2 14,4 3 2 4 2 S 50 0 -
09.08.2018 02:00:00 19,4 11,8 13,9 19,0 21,4 14,4 4 2 6 4 N 50 0 -
09.08.2018 01:00:00 19,4 12,1 17,4 19,6 21,7 14,4 6 4 9 5 NNW 50 0 -
09.08.2018 00:00:00 19,1 11,4 16,4 20,5 22,0 14,4 9 5 14 8 WNW 50 0 -
08.08.2018 23:00:00 19,9 11,2 17,9 21,2 22,2 14,4 10 5 12 6 N 50 0 -
08.08.2018 22:00:00 20,2 11,9 17,9 22,0 22,4 14,4 8 4 12 6 N 50 0 -
08.08.2018 21:00:00 19,9 13,2 17,5 23,4 22,5 14,4 10 6 17 9 WNW 50 16 -

tt = Température de l'air
td = dewpoint
tt 5cm = Température de l'air 5cm
tt -5cm = Température de l'air -5cm
tt -20cm = Température de l'air -20cm
tt -100cm = Température de l'air -100cm
ff = Vitesse du vent
fx = gusts
dd = Direction du vent
vv = visibility
sd = Ensoleillement
rr = Quantités de précipitations

stations d'obs. à proximité